Time;durP1;ratioP1;P1;durP2;ratioP2;P2;SDS_P1;SDS_P2;PMS_P1;PMS_P2;Temp;Humidity;BMP_temperature;BMP_pressure;BME280_temperature;BME280_humidity;BME280_pressure;Samples;Min_cycle;Max_cycle;Signal;HPM_P1;HPM_P2
2024/02/09 00:01:15;;;;;;;20.23;8.80;;;11.10;98.30;;;;;;5001811;28;20026;-80
2024/02/09 00:03:41;;;;;;;21.55;9.13;;;11.10;98.30;;;;;;4999074;28;20057;-77
2024/02/09 00:06:07;;;;;;;23.45;9.90;;;11.00;98.30;;;;;;4999108;28;20064;-77
2024/02/09 00:08:35;;;;;;;25.27;9.50;;;11.00;98.30;;;;;;4991756;28;20061;-77
2024/02/09 00:11:01;;;;;;;20.95;9.40;;;11.00;98.30;;;;;;4999989;28;20588;-79
2024/02/09 00:13:28;;;;;;;21.50;8.45;;;11.00;98.30;;;;;;4990394;28;20022;-77
2024/02/09 00:15:54;;;;;;;21.20;8.40;;;11.00;98.30;;;;;;4996395;28;20042;-77
2024/02/09 00:18:20;;;;;;;24.65;8.55;;;11.00;98.30;;;;;;4999009;28;20053;-78
2024/02/09 00:20:47;;;;;;;20.17;8.50;;;10.90;98.30;;;;;;4996743;28;20030;-77
2024/02/09 00:23:19;;;;;;;18.27;8.20;;;10.90;98.40;;;;;;4997068;28;20382;-77
2024/02/09 00:25:49;;;;;;;19.38;8.73;;;10.80;98.40;;;;;;4992961;28;20051;-77
2024/02/09 00:28:15;;;;;;;17.05;8.48;;;10.80;98.50;;;;;;4993780;28;20033;-77
2024/02/09 00:30:41;;;;;;;16.02;8.50;;;10.80;98.50;;;;;;4993973;28;20046;-79
2024/02/09 00:33:08;;;;;;;20.95;8.68;;;10.90;98.60;;;;;;4995804;28;20085;-79
2024/02/09 00:35:40;;;;;;;22.45;9.05;;;10.80;98.60;;;;;;4996782;28;20329;-78
2024/02/09 00:38:07;;;;;;;17.75;8.80;;;10.80;98.70;;;;;;4996827;28;20026;-79
2024/02/09 00:40:33;;;;;;;16.45;8.13;;;10.70;98.70;;;;;;4996361;28;20143;-77
2024/02/09 00:43:02;;;;;;;17.55;9.13;;;10.80;98.80;;;;;;5003353;28;20064;-79
2024/02/09 00:45:33;;;;;;;19.67;9.07;;;10.80;98.80;;;;;;5007930;28;20054;-76
2024/02/09 00:48:00;;;;;;;15.65;6.72;;;10.70;98.80;;;;;;5001362;28;20033;-80
2024/02/09 00:50:27;;;;;;;16.48;7.18;;;10.80;98.80;;;;;;5004195;28;20403;-77
2024/02/09 00:52:53;;;;;;;14.80;7.55;;;10.70;98.70;;;;;;5004780;28;20454;-77
2024/02/09 00:55:20;;;;;;;15.35;7.25;;;10.70;98.70;;;;;;4997372;28;20995;-80
2024/02/09 00:57:46;;;;;;;13.50;7.05;;;10.70;98.70;;;;;;5003049;28;20033;-77
2024/02/09 01:00:15;;;;;;;15.57;6.72;;;10.70;98.60;;;;;;5001070;28;20037;-79
2024/02/09 01:02:43;;;;;;;11.45;6.90;;;10.70;98.70;;;;;;5002855;28;20509;-78
2024/02/09 01:05:15;;;;;;;14.07;6.95;;;10.70;98.60;;;;;;4999735;28;20037;-77
2024/02/09 01:07:42;;;;;;;14.15;6.63;;;10.70;98.60;;;;;;5000780;28;20497;-78
2024/02/09 01:10:09;;;;;;;13.77;6.82;;;10.70;98.70;;;;;;5000307;28;20025;-78
2024/02/09 02:45:55;;;;;;;14.77;6.78;;;10.60;97.40;;;;;;4996651;28;20038;-79
2024/02/09 03:05:14;;;;;;;11.50;6.30;;;10.40;97.30;;;;;;4975556;28;20045;-76
2024/02/09 03:07:43;;;;;;;14.63;6.35;;;10.50;97.20;;;;;;4984093;28;20034;-78
2024/02/09 03:10:12;;;;;;;16.50;6.45;;;10.40;97.20;;;;;;4976083;28;20039;-81
2024/02/09 03:12:38;;;;;;;11.90;5.85;;;10.50;97.30;;;;;;4976864;28;20543;-77
2024/02/09 03:15:09;;;;;;;16.50;6.70;;;10.50;97.30;;;;;;4977901;28;20401;-77
2024/02/09 03:17:39;;;;;;;13.13;6.65;;;10.60;97.20;;;;;;4983834;28;20102;-79
2024/02/09 03:20:06;;;;;;;16.55;6.50;;;10.60;97.10;;;;;;4972181;28;20083;-77
2024/02/09 03:22:32;;;;;;;13.77;6.25;;;10.60;97.00;;;;;;4977111;28;20840;-79
2024/02/09 03:25:03;;;;;;;13.80;6.32;;;10.60;97.00;;;;;;4976478;28;20030;-77
2024/02/09 03:27:33;;;;;;;15.48;6.32;;;10.60;97.10;;;;;;4977021;28;20030;-81
2024/02/09 03:30:00;;;;;;;15.95;6.40;;;10.60;96.90;;;;;;4967551;28;20658;-78
2024/02/09 03:32:30;;;;;;;14.25;6.07;;;10.60;96.90;;;;;;4975330;28;20057;-78
2024/02/09 03:34:59;;;;;;;14.32;6.60;;;10.60;96.90;;;;;;4985208;28;20030;-82
2024/02/09 03:37:26;;;;;;;18.90;7.70;;;10.60;96.90;;;;;;5000516;28;20021;-81
2024/02/09 03:39:58;;;;;;;16.60;7.15;;;10.60;96.90;;;;;;4999267;28;20046;-78
2024/02/09 03:42:23;;;;;;;16.02;5.75;;;10.70;96.80;;;;;;5006626;28;20417;-77
2024/02/09 03:44:55;;;;;;;15.10;6.03;;;10.70;96.80;;;;;;4994926;28;20038;-80
2024/02/09 03:47:24;;;;;;;13.98;5.88;;;10.70;96.70;;;;;;5000035;28;20025;-79
2024/02/09 03:49:51;;;;;;;14.88;6.38;;;10.70;96.70;;;;;;4999857;28;20029;-78
2024/02/09 03:52:21;;;;;;;16.65;6.00;;;10.70;96.70;;;;;;4995220;28;20529;-78
2024/02/09 03:54:54;;;;;;;15.00;6.93;;;10.70;96.60;;;;;;5001783;28;20474;-78
2024/02/09 03:57:26;;;;;;;16.63;6.10;;;10.80;96.50;;;;;;4996068;28;20072;-77
2024/02/09 03:59:53;;;;;;;17.83;6.57;;;10.80;96.50;;;;;;5005276;28;20415;-80
2024/02/09 04:02:20;;;;;;;13.50;5.40;;;10.80;96.40;;;;;;4998031;28;20031;-76
2024/02/09 04:04:48;;;;;;;14.88;6.13;;;10.80;96.30;;;;;;4990124;28;20033;-82
2024/02/09 04:07:15;;;;;;;12.77;6.15;;;10.80;96.30;;;;;;4990492;28;20029;-77
2024/02/09 04:09:41;;;;;;;14.32;5.50;;;10.70;96.30;;;;;;4991068;28;20057;-78
2024/02/09 04:12:08;;;;;;;13.90;5.50;;;10.70;96.40;;;;;;4998509;28;20018;-77
2024/02/09 04:14:34;;;;;;;14.40;5.68;;;10.80;96.30;;;;;;4993545;28;20511;-76
2024/02/09 04:17:00;;;;;;;14.07;6.35;;;10.80;96.30;;;;;;4996305;28;20353;-80
2024/02/09 04:19:26;;;;;;;17.17;6.25;;;10.80;96.30;;;;;;4998620;28;20079;-79
2024/02/09 04:21:53;;;;;;;16.60;7.20;;;10.80;96.20;;;;;;4996750;28;20111;-78
2024/02/09 04:24:23;;;;;;;15.32;6.07;;;10.80;96.20;;;;;;5014528;28;20038;-78
2024/02/09 04:26:51;;;;;;;17.25;6.20;;;10.80;96.10;;;;;;5000381;28;20034;-77
2024/02/09 04:29:21;;;;;;;13.18;5.15;;;10.80;96.20;;;;;;4996721;28;20100;-77
2024/02/09 04:31:50;;;;;;;15.07;5.95;;;10.80;96.20;;;;;;4999915;28;20024;-79
2024/02/09 04:34:17;;;;;;;11.45;5.10;;;10.80;96.20;;;;;;5014294;28;20835;-80
2024/02/09 04:36:45;;;;;;;16.02;5.45;;;10.80;96.20;;;;;;5002217;28;20080;-77
2024/02/09 04:39:12;;;;;;;14.63;5.70;;;10.80;96.10;;;;;;4994481;28;24129;-77
2024/02/09 04:41:39;;;;;;;13.10;6.03;;;10.90;95.90;;;;;;4994634;28;20028;-81
2024/02/09 04:44:05;;;;;;;17.20;6.25;;;10.90;95.90;;;;;;4999620;28;20038;-81
2024/02/09 04:46:34;;;;;;;10.07;5.13;;;10.90;95.70;;;;;;5003609;28;20033;-76
2024/02/09 04:49:01;;;;;;;13.20;6.20;;;10.90;95.70;;;;;;4999001;28;20461;-79
2024/02/09 04:51:33;;;;;;;16.27;5.00;;;11.00;95.60;;;;;;4998291;28;20241;-77
2024/02/09 04:53:59;;;;;;;13.98;5.55;;;11.00;95.50;;;;;;4993623;28;20034;-76
2024/02/09 04:56:32;;;;;;;14.25;5.20;;;11.00;95.40;;;;;;5003254;28;20017;-80
2024/02/09 04:58:58;;;;;;;13.52;4.95;;;11.00;95.40;;;;;;4998001;28;20064;-78
2024/02/09 05:01:29;;;;;;;12.35;4.63;;;11.00;95.30;;;;;;4996927;28;20527;-77
2024/02/09 05:04:00;;;;;;;15.02;5.40;;;11.10;95.30;;;;;;5002434;28;20026;-76
2024/02/09 05:06:30;;;;;;;14.05;4.97;;;11.10;95.10;;;;;;5004502;28;20456;-77
2024/02/09 05:08:57;;;;;;;13.45;5.80;;;11.10;95.00;;;;;;4997546;28;20120;-77
2024/02/09 05:11:36;;;;;;;11.43;4.78;;;11.10;95.00;;;;;;4997982;28;20022;-78
2024/02/09 05:14:05;;;;;;;10.68;5.13;;;11.10;94.90;;;;;;4995979;28;20030;-80
2024/02/09 05:16:31;;;;;;;15.68;6.07;;;11.10;95.20;;;;;;4995016;28;20105;-78
2024/02/09 05:18:57;;;;;;;14.90;5.20;;;11.10;95.40;;;;;;4997359;28;20049;-79
2024/02/09 05:21:23;;;;;;;12.98;6.25;;;11.10;95.60;;;;;;5000367;28;20018;-77
2024/02/09 05:23:49;;;;;;;13.02;4.80;;;11.00;95.80;;;;;;4993663;28;20026;-78
2024/02/09 05:26:15;;;;;;;15.38;5.20;;;11.00;95.90;;;;;;4992641;28;20026;-76
2024/02/09 05:28:42;;;;;;;9.77;4.90;;;11.00;95.90;;;;;;5002420;28;20033;-76
2024/02/09 05:31:19;;;;;;;10.57;4.88;;;11.00;95.90;;;;;;4996025;28;20024;-77
2024/02/09 05:33:45;;;;;;;16.17;5.10;;;11.00;96.00;;;;;;4999781;28;20029;-78
2024/02/09 05:36:21;;;;;;;11.07;4.45;;;11.00;96.00;;;;;;5001277;28;20158;-77
2024/02/09 05:38:47;;;;;;;14.40;4.95;;;10.90;96.00;;;;;;5001514;28;20042;-78
2024/02/09 05:41:17;;;;;;;14.98;4.82;;;11.00;96.00;;;;;;4995858;28;20030;-77
2024/02/09 05:43:47;;;;;;;11.75;5.13;;;11.00;95.90;;;;;;4997101;28;20053;-78
2024/02/09 05:46:16;;;;;;;12.88;4.47;;;11.00;95.80;;;;;;4991346;28;20475;-76
2024/02/09 05:48:46;;;;;;;12.55;4.88;;;11.00;95.70;;;;;;4993171;28;20514;-80
2024/02/09 05:51:13;;;;;;;9.60;4.78;;;11.00;95.80;;;;;;4997569;28;20069;-80
2024/02/09 05:53:42;;;;;;;16.77;4.85;;;11.00;95.90;;;;;;4994056;28;20029;-81
2024/02/09 05:56:14;;;;;;;14.13;4.72;;;11.00;95.90;;;;;;5002943;28;20022;-77
2024/02/09 05:58:40;;;;;;;11.15;4.88;;;11.00;95.90;;;;;;4992929;28;20804;-78
2024/02/09 06:01:06;;;;;;;11.82;5.28;;;11.00;95.70;;;;;;4999848;28;20042;-81
2024/02/09 06:03:33;;;;;;;13.48;4.80;;;11.00;95.60;;;;;;4993185;28;20044;-77
2024/02/09 06:06:01;;;;;;;12.50;4.40;;;11.00;95.60;;;;;;4999544;28;20053;-79
2024/02/09 06:08:27;;;;;;;12.10;4.90;;;11.10;95.50;;;;;;5015121;28;20045;-79
2024/02/09 06:10:52;;;;;;;11.82;5.30;;;11.00;95.50;;;;;;5007677;28;20045;-79
2024/02/09 06:13:18;;;;;;;11.45;5.03;;;11.10;95.50;;;;;;5000813;28;20363;-75
2024/02/09 06:15:44;;;;;;;12.00;4.88;;;11.10;95.50;;;;;;5008000;28;20034;-80
2024/02/09 06:18:09;;;;;;;11.40;4.60;;;11.10;95.40;;;;;;5009789;28;20058;-77
2024/02/09 06:20:35;;;;;;;13.80;4.28;;;11.10;95.40;;;;;;4995997;28;20046;-77
2024/02/09 06:23:01;;;;;;;12.73;4.57;;;11.10;95.50;;;;;;4990111;28;20450;-77
2024/02/09 06:25:27;;;;;;;13.02;4.55;;;11.10;95.40;;;;;;4995389;28;20034;-77
2024/02/09 06:27:55;;;;;;;10.35;4.47;;;11.10;95.30;;;;;;4991225;28;20030;-76
2024/02/09 06:30:21;;;;;;;11.40;4.88;;;11.10;95.40;;;;;;4993134;28;20050;-79
2024/02/09 06:32:47;;;;;;;12.43;4.32;;;11.10;95.40;;;;;;5000689;28;20532;-75
2024/02/09 06:35:15;;;;;;;13.30;4.75;;;11.10;95.40;;;;;;5004353;28;20062;-79
2024/02/09 06:37:40;;;;;;;13.35;5.13;;;11.10;95.30;;;;;;4997683;28;20030;-77
2024/02/09 06:40:08;;;;;;;12.52;4.32;;;11.10;95.20;;;;;;4996155;28;20115;-79
2024/02/09 06:42:34;;;;;;;12.38;4.15;;;11.10;95.00;;;;;;4999853;28;20022;-78
2024/02/09 06:45:00;;;;;;;15.18;5.15;;;11.10;95.00;;;;;;4991753;28;20034;-75
2024/02/09 06:47:25;;;;;;;9.60;4.07;;;11.10;95.10;;;;;;4999539;28;20450;-80
2024/02/09 06:49:51;;;;;;;12.60;4.43;;;11.20;95.10;;;;;;4997070;28;20042;-80
2024/02/09 06:52:18;;;;;;;17.15;4.82;;;11.10;95.10;;;;;;4996024;28;20633;-75
2024/02/09 06:54:45;;;;;;;10.50;4.25;;;11.10;95.20;;;;;;5015593;28;20034;-79
2024/02/09 06:57:11;;;;;;;14.05;4.28;;;11.10;95.30;;;;;;5017416;28;20033;-77
2024/02/09 06:59:40;;;;;;;13.07;4.32;;;11.10;95.30;;;;;;5017854;28;20042;-80
2024/02/09 07:02:06;;;;;;;14.27;5.00;;;11.10;95.30;;;;;;5015064;28;20030;-79
2024/02/09 07:04:33;;;;;;;11.35;4.47;;;11.10;95.40;;;;;;4998338;28;20359;-76
2024/02/09 07:07:05;;;;;;;11.07;4.45;;;11.10;95.50;;;;;;4998419;28;20073;-76
2024/02/09 07:09:33;;;;;;;10.40;4.32;;;11.10;95.50;;;;;;4999504;28;20112;-78
2024/02/09 07:12:02;;;;;;;13.38;4.68;;;11.10;95.60;;;;;;4992411;28;20533;-76
2024/02/09 07:14:27;;;;;;;14.85;5.10;;;11.10;95.50;;;;;;4993055;28;20029;-72
2024/02/09 07:16:53;;;;;;;10.70;4.90;;;11.10;95.70;;;;;;4996110;28;20051;-72
2024/02/09 07:19:18;;;;;;;11.63;4.32;;;11.10;95.70;;;;;;4998207;28;20087;-72
2024/02/09 07:21:44;;;;;;;9.60;3.95;;;11.10;95.70;;;;;;4995240;28;20027;-71
2024/02/09 07:24:10;;;;;;;11.77;4.80;;;11.10;95.90;;;;;;4992409;28;20354;-71
2024/02/09 07:26:35;;;;;;;12.63;4.55;;;11.10;96.00;;;;;;4994123;28;20109;-71
2024/02/09 07:29:01;;;;;;;16.13;4.90;;;11.10;96.00;;;;;;4994915;28;20046;-73
2024/02/09 07:31:27;;;;;;;12.30;4.43;;;11.10;96.00;;;;;;4994355;28;20121;-73
2024/02/09 07:33:54;;;;;;;15.30;4.38;;;11.10;96.10;;;;;;4993524;28;20424;-71
2024/02/09 07:36:21;;;;;;;14.65;4.38;;;11.20;96.10;;;;;;4992178;28;20129;-72
2024/02/09 07:38:47;;;;;;;13.48;4.50;;;11.20;96.00;;;;;;5000691;28;20654;-73
2024/02/09 07:41:18;;;;;;;12.30;4.78;;;11.20;96.10;;;;;;4996209;28;20158;-71
2024/02/09 07:43:44;;;;;;;10.52;4.25;;;11.20;96.20;;;;;;4999220;28;20018;-71
2024/02/09 07:46:12;;;;;;;13.65;4.78;;;11.20;96.30;;;;;;4993777;28;20030;-72
2024/02/09 07:48:38;;;;;;;14.85;5.40;;;11.20;96.40;;;;;;4992059;28;20052;-72
2024/02/09 07:51:04;;;;;;;13.80;4.80;;;11.20;96.60;;;;;;4995715;28;20018;-72
2024/02/09 07:53:33;;;;;;;14.77;5.00;;;11.10;96.70;;;;;;4996996;28;20072;-73
2024/02/09 07:55:59;;;;;;;13.25;4.43;;;11.10;96.80;;;;;;4994938;28;20042;-71
2024/02/09 07:58:25;;;;;;;9.40;3.88;;;11.10;96.90;;;;;;4996191;28;20037;-73
2024/02/09 08:00:54;;;;;;;9.65;4.72;;;11.10;97.00;;;;;;4996234;28;20382;-72
2024/02/09 08:03:20;;;;;;;15.18;5.25;;;11.10;97.20;;;;;;5003473;28;20018;-73
2024/02/09 08:05:47;;;;;;;10.50;4.63;;;11.20;97.20;;;;;;5002362;28;20481;-73
2024/02/09 08:08:12;;;;;;;12.93;4.50;;;11.20;97.30;;;;;;5002900;28;20037;-73
2024/02/09 08:10:38;;;;;;;11.90;4.68;;;11.20;97.30;;;;;;4999541;28;20030;-72
2024/02/09 08:13:10;;;;;;;13.38;4.43;;;11.20;97.30;;;;;;5001572;28;20474;-72
2024/02/09 08:15:36;;;;;;;13.50;4.43;;;11.30;97.20;;;;;;5001026;28;20022;-73
2024/02/09 08:18:01;;;;;;;15.40;4.78;;;11.20;97.10;;;;;;5007745;28;20030;-70
2024/02/09 08:20:27;;;;;;;10.60;4.18;;;11.20;97.00;;;;;;5001607;28;20029;-73
2024/02/09 08:22:53;;;;;;;8.77;3.92;;;11.20;97.00;;;;;;5000463;28;20079;-72
2024/02/09 08:25:19;;;;;;;11.27;4.57;;;11.20;97.00;;;;;;4995671;28;20030;-72
2024/02/09 08:27:46;;;;;;;15.70;5.53;;;11.30;96.90;;;;;;4993944;28;20014;-72
2024/02/09 08:30:12;;;;;;;11.45;4.28;;;11.30;96.90;;;;;;4994945;28;20056;-72
2024/02/09 08:32:40;;;;;;;12.38;4.10;;;11.30;97.00;;;;;;4991223;28;20026;-71
2024/02/09 08:35:06;;;;;;;11.88;4.00;;;11.40;96.90;;;;;;4992066;28;20038;-73
2024/02/09 08:37:32;;;;;;;11.95;3.95;;;11.40;96.80;;;;;;4994894;28;20134;-72
2024/02/09 08:39:59;;;;;;;14.65;4.28;;;11.50;96.60;;;;;;4999745;28;20057;-71
2024/02/09 08:42:26;;;;;;;13.57;3.97;;;11.60;96.20;;;;;;4997608;28;20030;-72
2024/02/09 08:44:52;;;;;;;13.23;4.63;;;11.60;95.90;;;;;;4997271;28;20074;-73
2024/02/09 08:47:19;;;;;;;12.32;4.70;;;11.60;95.70;;;;;;4993628;28;20029;-72
2024/02/09 08:49:45;;;;;;;11.15;4.03;;;11.60;95.50;;;;;;4996730;28;20026;-72
2024/02/09 08:52:14;;;;;;;11.85;4.38;;;11.60;95.40;;;;;;4992707;28;20440;-72
2024/02/09 08:54:40;;;;;;;10.75;4.43;;;11.70;95.30;;;;;;4998708;28;20062;-70
2024/02/09 08:57:05;;;;;;;12.13;3.92;;;11.70;95.20;;;;;;4993343;28;20509;-72
2024/02/09 08:59:31;;;;;;;10.98;3.38;;;11.70;95.10;;;;;;4993294;28;20030;-72
2024/02/09 09:01:58;;;;;;;13.23;4.43;;;11.70;95.00;;;;;;4996966;28;20026;-74
2024/02/09 09:04:24;;;;;;;11.05;4.22;;;11.80;94.90;;;;;;4995821;28;20033;-72
2024/02/09 09:06:49;;;;;;;12.02;4.05;;;11.80;94.70;;;;;;4997699;28;20029;-70
2024/02/09 09:09:15;;;;;;;13.70;4.57;;;11.80;94.70;;;;;;4996165;28;20336;-72
2024/02/09 09:11:42;;;;;;;13.93;4.25;;;11.80;94.40;;;;;;4986052;28;20857;-72
2024/02/09 09:14:10;;;;;;;10.60;4.47;;;11.80;94.40;;;;;;4998350;28;20072;-72
2024/02/09 09:16:37;;;;;;;13.27;5.47;;;11.90;94.30;;;;;;4997272;28;20029;-74
2024/02/09 09:19:05;;;;;;;13.00;4.25;;;11.90;94.10;;;;;;4995060;28;20053;-73
2024/02/09 09:21:31;;;;;;;15.45;5.85;;;12.00;94.10;;;;;;4995957;28;20362;-70
2024/02/09 09:23:59;;;;;;;20.05;8.70;;;12.00;93.90;;;;;;4997160;28;20029;-74
2024/02/09 09:26:30;;;;;;;25.35;11.98;;;12.10;93.70;;;;;;5016569;28;20014;-71
2024/02/09 09:28:56;;;;;;;20.92;8.90;;;12.00;93.70;;;;;;5003625;28;20030;-72
2024/02/09 09:31:22;;;;;;;27.20;15.13;;;12.10;93.60;;;;;;4996148;28;20030;-73
2024/02/09 09:33:47;;;;;;;21.50;11.18;;;12.10;93.50;;;;;;4994428;28;20033;-73
2024/02/09 09:36:13;;;;;;;25.77;14.10;;;12.10;93.60;;;;;;4996917;28;20050;-72
2024/02/09 09:38:39;;;;;;;20.33;10.98;;;12.10;93.50;;;;;;4985405;28;20046;-73
2024/02/09 09:41:05;;;;;;;27.15;16.55;;;12.10;93.60;;;;;;4997186;28;20038;-72
2024/02/09 09:43:31;;;;;;;13.82;7.43;;;12.10;93.60;;;;;;5000523;28;20467;-72
2024/02/09 09:45:56;;;;;;;27.33;16.98;;;12.10;93.50;;;;;;5002324;28;20044;-72
2024/02/09 09:48:24;;;;;;;17.70;11.63;;;12.10;93.50;;;;;;4996663;28;20144;-72
2024/02/09 09:50:52;;;;;;;15.63;8.50;;;12.20;93.40;;;;;;4994648;28;20037;-70
2024/02/09 09:53:25;;;;;;;13.63;5.63;;;12.10;93.40;;;;;;4996108;28;20025;-70
2024/02/09 09:55:53;;;;;;;15.32;7.93;;;12.20;93.40;;;;;;5004835;28;20037;-70
2024/02/09 09:58:20;;;;;;;11.65;5.15;;;12.10;93.30;;;;;;5000043;28;20707;-70
2024/02/09 10:00:48;;;;;;;13.05;5.13;;;12.20;93.40;;;;;;4995444;28;20043;-71
2024/02/09 10:03:14;;;;;;;13.10;5.63;;;12.20;93.30;;;;;;4993957;28;20026;-70
2024/02/09 10:05:40;;;;;;;22.02;9.60;;;12.30;93.40;;;;;;4997673;28;20038;-71
2024/02/09 10:08:07;;;;;;;15.65;6.55;;;12.30;93.40;;;;;;4996620;28;20080;-71
2024/02/09 10:10:33;;;;;;;12.70;5.05;;;12.30;93.40;;;;;;4996957;28;20034;-71
2024/02/09 10:13:12;;;;;;;13.32;5.60;;;12.30;93.30;;;;;;4998642;28;20022;-71
2024/02/09 10:15:41;;;;;;;11.02;5.03;;;12.30;93.40;;;;;;4999785;28;20113;-72
2024/02/09 10:18:10;;;;;;;10.45;3.63;;;12.30;93.50;;;;;;4997482;28;20062;-73
2024/02/09 10:20:46;;;;;;;15.82;9.23;;;12.30;93.40;;;;;;5003600;28;20454;-71
2024/02/09 10:23:12;;;;;;;13.65;6.15;;;12.30;93.60;;;;;;4995567;28;21631;-72
2024/02/09 10:25:39;;;;;;;19.20;9.55;;;12.40;93.80;;;;;;4995718;28;20035;-72
2024/02/09 10:28:04;;;;;;;16.48;6.97;;;12.50;93.70;;;;;;4996525;28;20047;-73
2024/02/09 10:30:30;;;;;;;14.07;6.30;;;12.50;93.60;;;;;;4996536;28;20526;-73
2024/02/09 10:32:57;;;;;;;12.50;4.07;;;12.50;93.40;;;;;;4993902;28;20030;-71
2024/02/09 10:35:23;;;;;;;14.07;5.53;;;12.60;93.20;;;;;;4994547;28;20086;-72
2024/02/09 10:37:49;;;;;;;14.88;5.45;;;12.60;92.80;;;;;;4993001;28;20033;-72
2024/02/09 10:40:16;;;;;;;10.80;3.88;;;12.70;92.40;;;;;;5001691;28;20029;-74
2024/02/09 10:42:45;;;;;;;10.65;4.28;;;12.70;92.10;;;;;;5000850;28;20450;-73
2024/02/09 10:45:12;;;;;;;11.93;3.90;;;12.80;92.00;;;;;;4994717;28;20453;-73
2024/02/09 10:47:39;;;;;;;11.65;4.28;;;12.70;92.10;;;;;;5000224;28;20350;-72
2024/02/09 10:50:06;;;;;;;10.57;3.38;;;12.80;92.10;;;;;;4995548;28;20034;-72
2024/02/09 10:52:35;;;;;;;8.55;3.60;;;12.80;91.80;;;;;;4983429;28;20156;-74
2024/02/09 10:55:08;;;;;;;8.82;3.10;;;12.90;91.90;;;;;;4996479;28;20026;-71
2024/02/09 10:57:34;;;;;;;10.07;3.40;;;13.00;91.80;;;;;;4991314;28;20045;-72
2024/02/09 11:00:02;;;;;;;12.23;4.07;;;13.00;91.80;;;;;;4998020;28;20149;-72
2024/02/09 11:02:35;;;;;;;13.77;5.25;;;13.10;91.80;;;;;;4998070;28;20030;-72
2024/02/09 11:05:03;;;;;;;23.55;12.48;;;13.00;91.80;;;;;;4995584;28;20026;-71
2024/02/09 11:07:29;;;;;;;19.70;6.78;;;13.00;92.00;;;;;;4998849;28;20026;-74
2024/02/09 11:09:56;;;;;;;20.85;8.48;;;12.90;92.30;;;;;;4996593;28;20128;-71
2024/02/09 11:12:21;;;;;;;15.90;6.55;;;13.00;93.10;;;;;;4998555;28;20163;-72
2024/02/09 11:14:47;;;;;;;15.98;8.13;;;13.20;92.70;;;;;;4996001;28;20136;-72
2024/02/09 11:17:18;;;;;;;18.38;8.25;;;13.20;92.00;;;;;;4997920;28;20102;-71
2024/02/09 11:19:44;;;;;;;22.00;14.38;;;13.30;91.80;;;;;;4996735;28;20108;-70
2024/02/09 11:22:11;;;;;;;17.83;10.25;;;13.30;91.70;;;;;;5000893;28;20108;-73
2024/02/09 11:24:37;;;;;;;18.23;9.00;;;13.30;91.80;;;;;;4994434;28;20466;-72
2024/02/09 11:27:05;;;;;;;36.72;16.17;;;13.30;91.60;;;;;;4999247;28;20038;-71
2024/02/09 11:29:35;;;;;;;24.73;12.15;;;13.30;91.50;;;;;;4997075;28;20053;-72
2024/02/09 11:32:05;;;;;;;11.00;3.90;;;13.40;91.40;;;;;;4984099;28;20022;-73
2024/02/09 11:34:34;;;;;;;11.32;3.78;;;13.50;90.90;;;;;;4982202;28;20053;-72
2024/02/09 11:37:00;;;;;;;10.27;3.15;;;13.70;90.90;;;;;;4996187;28;20062;-74
2024/02/09 11:39:31;;;;;;;8.57;3.30;;;13.70;90.30;;;;;;4994733;28;20442;-72
2024/02/09 11:41:57;;;;;;;8.60;2.85;;;13.80;89.90;;;;;;4997245;28;20045;-73
2024/02/09 11:44:23;;;;;;;12.57;2.90;;;14.00;89.70;;;;;;4992327;28;20389;-73
2024/02/09 11:46:52;;;;;;;10.60;3.38;;;14.20;89.30;;;;;;4995924;28;20482;-72
2024/02/09 11:49:19;;;;;;;19.55;9.40;;;14.30;88.00;;;;;;4994094;28;20123;-70
2024/02/09 11:51:45;;;;;;;9.35;4.00;;;14.50;88.10;;;;;;4994121;28;20049;-71
2024/02/09 11:54:12;;;;;;;12.45;2.60;;;14.70;87.20;;;;;;4993688;28;20120;-71
2024/02/09 11:56:46;;;;;;;10.50;3.42;;;14.60;86.20;;;;;;4993313;28;20098;-70
2024/02/09 11:59:11;;;;;;;12.82;3.20;;;14.60;86.50;;;;;;4996557;28;21671;-73
2024/02/09 12:01:40;;;;;;;13.05;2.80;;;14.60;86.50;;;;;;4991138;28;20524;-73
2024/02/09 12:04:06;;;;;;;6.20;2.78;;;14.50;86.10;;;;;;4981761;28;20041;-71
2024/02/09 12:06:34;;;;;;;8.85;2.67;;;14.60;86.20;;;;;;4992393;28;20528;-72
2024/02/09 12:09:00;;;;;;;10.85;2.40;;;14.80;85.40;;;;;;5008923;28;20030;-72
2024/02/09 12:11:26;;;;;;;9.73;2.28;;;15.00;84.70;;;;;;4992769;28;20284;-72
2024/02/09 12:13:51;;;;;;;8.10;2.33;;;15.10;84.10;;;;;;4992775;28;20363;-73
2024/02/09 12:16:18;;;;;;;7.32;2.13;;;15.20;83.20;;;;;;4995514;28;20026;-72
2024/02/09 12:18:45;;;;;;;7.40;2.22;;;15.30;82.20;;;;;;4995538;28;20080;-73
2024/02/09 12:21:11;;;;;;;5.93;2.13;;;15.20;81.70;;;;;;4992043;28;20030;-72
2024/02/09 12:23:38;;;;;;;6.45;1.90;;;15.20;81.50;;;;;;4991492;28;20069;-72
2024/02/09 12:26:08;;;;;;;10.45;2.67;;;15.20;81.60;;;;;;4990334;28;20025;-73
2024/02/09 12:28:35;;;;;;;7.97;2.40;;;15.20;81.80;;;;;;4989615;28;20029;-72
2024/02/09 12:31:07;;;;;;;8.48;2.50;;;15.20;81.80;;;;;;4996583;28;20028;-72
2024/02/09 12:33:47;;;;;;;8.30;3.08;;;15.30;82.60;;;;;;4990963;28;20021;-73
2024/02/09 12:36:14;;;;;;;10.20;3.75;;;15.30;82.20;;;;;;4991614;28;20053;-73
2024/02/09 12:38:41;;;;;;;11.80;3.97;;;15.10;82.70;;;;;;4991693;28;20120;-72
2024/02/09 12:41:07;;;;;;;10.13;2.90;;;15.10;83.10;;;;;;5002459;28;20544;-73
2024/02/09 12:43:33;;;;;;;9.70;3.00;;;15.10;83.00;;;;;;5002588;28;20062;-72
2024/02/09 12:46:00;;;;;;;16.55;6.85;;;15.00;82.80;;;;;;5000601;28;20097;-72
2024/02/09 12:48:28;;;;;;;13.35;4.50;;;15.00;83.20;;;;;;4996245;28;20034;-73
2024/02/09 12:50:54;;;;;;;10.25;3.10;;;15.10;82.50;;;;;;4995836;28;20530;-72
2024/02/09 12:53:20;;;;;;;10.50;4.00;;;15.10;82.40;;;;;;4997148;28;20030;-74
2024/02/09 12:55:46;;;;;;;8.93;3.63;;;15.10;81.60;;;;;;4988608;28;20053;-72
2024/02/09 12:58:13;;;;;;;7.10;2.70;;;15.00;81.80;;;;;;4998801;28;20034;-73
2024/02/09 13:00:39;;;;;;;14.82;3.80;;;15.10;81.40;;;;;;4985464;28;20034;-72
2024/02/09 13:03:05;;;;;;;9.02;2.38;;;15.10;81.70;;;;;;4997935;28;20028;-72
2024/02/09 13:05:31;;;;;;;7.53;2.33;;;15.20;81.80;;;;;;5000014;28;20606;-72
2024/02/09 13:07:58;;;;;;;7.80;2.40;;;15.30;81.30;;;;;;5000977;28;20022;-72
2024/02/09 13:10:24;;;;;;;10.25;2.30;;;15.20;80.60;;;;;;5000451;28;20109;-72
2024/02/09 13:12:51;;;;;;;7.80;2.08;;;15.10;80.80;;;;;;5002596;28;20109;-74
2024/02/09 13:15:17;;;;;;;10.32;3.03;;;15.10;80.80;;;;;;4995179;28;20069;-73
2024/02/09 13:17:43;;;;;;;13.23;5.03;;;15.10;80.50;;;;;;5001069;28;20446;-72
2024/02/09 13:20:09;;;;;;;14.82;5.97;;;15.10;80.20;;;;;;4998898;28;20034;-73
2024/02/09 13:22:38;;;;;;;15.95;6.40;;;14.90;80.50;;;;;;5003373;28;20112;-73
2024/02/09 13:25:13;;;;;;;16.67;8.10;;;14.80;80.80;;;;;;4999362;28;20034;-72
2024/02/09 13:27:45;;;;;;;21.58;12.07;;;14.80;81.10;;;;;;4998703;28;20341;-71
2024/02/09 13:30:12;;;;;;;13.07;5.65;;;14.80;81.10;;;;;;4989009;28;20164;-72
2024/02/09 13:32:38;;;;;;;10.18;3.05;;;14.80;81.30;;;;;;4997959;28;20079;-72
2024/02/09 13:35:11;;;;;;;8.38;2.40;;;14.80;81.30;;;;;;4997092;28;20038;-73
2024/02/09 13:37:44;;;;;;;6.90;2.30;;;14.90;81.30;;;;;;5001561;28;20342;-71
2024/02/09 13:40:18;;;;;;;7.70;2.40;;;14.90;80.60;;;;;;4997503;28;20061;-72
2024/02/09 13:42:45;;;;;;;10.95;2.30;;;14.70;80.80;;;;;;4991593;28;20029;-72
2024/02/09 13:45:15;;;;;;;9.98;2.03;;;14.60;80.70;;;;;;4999837;28;20046;-71
2024/02/09 13:47:42;;;;;;;8.75;1.90;;;14.60;81.30;;;;;;5001329;28;20030;-72
2024/02/09 13:50:10;;;;;;;6.95;2.33;;;14.60;81.20;;;;;;4980962;28;20034;-72
2024/02/09 13:52:40;;;;;;;7.90;1.85;;;14.60;81.40;;;;;;4996627;28;20018;-73
2024/02/09 13:55:12;;;;;;;10.25;2.58;;;14.50;81.50;;;;;;4998672;28;20089;-72
2024/02/09 13:57:48;;;;;;;11.70;2.20;;;14.50;81.20;;;;;;5003434;28;20109;-72
2024/02/09 14:00:18;;;;;;;8.43;1.98;;;14.60;81.10;;;;;;4995928;28;20112;-72
2024/02/09 14:02:45;;;;;;;10.35;2.25;;;14.60;81.40;;;;;;5002318;28;20120;-73
2024/02/09 14:05:11;;;;;;;8.30;1.98;;;14.60;81.10;;;;;;5001160;28;20030;-73
2024/02/09 14:07:38;;;;;;;7.25;2.00;;;14.50;81.00;;;;;;5003246;28;20565;-72
2024/02/09 14:10:08;;;;;;;6.72;2.13;;;14.60;80.70;;;;;;4998408;28;20061;-72
2024/02/09 14:12:34;;;;;;;8.85;2.13;;;14.60;80.30;;;;;;5001006;28;20101;-73
2024/02/09 14:15:02;;;;;;;7.38;2.83;;;14.50;80.00;;;;;;4998510;28;20042;-70
2024/02/09 14:17:32;;;;;;;9.85;2.33;;;14.50;80.40;;;;;;4999881;28;20029;-72
2024/02/09 14:19:59;;;;;;;10.55;3.88;;;14.50;80.70;;;;;;4998477;28;20093;-73
2024/02/09 14:22:25;;;;;;;15.85;3.88;;;14.60;81.30;;;;;;4995564;28;20025;-72
2024/02/09 14:24:50;;;;;;;10.18;3.25;;;14.50;81.80;;;;;;4995896;28;20021;-72
2024/02/09 14:27:16;;;;;;;10.05;4.10;;;14.60;82.00;;;;;;5009466;28;20600;-73
2024/02/09 14:29:45;;;;;;;12.43;4.60;;;14.50;82.70;;;;;;4997933;28;20446;-73